sensor_id;sensor_type;location;lat;lon;timestamp;P1;durP1;ratioP1;P2;durP2;ratioP2
19535;SDS011;9913;51.168;4.124;2022-09-09T00:00:43;4.28;;;1.98;;
19535;SDS011;9913;51.168;4.124;2022-09-09T00:03:16;6.20;;;2.10;;
19535;SDS011;9913;51.168;4.124;2022-09-09T00:05:48;5.60;;;2.10;;
19535;SDS011;9913;51.168;4.124;2022-09-09T00:08:23;4.73;;;2.20;;
19535;SDS011;9913;51.168;4.124;2022-09-09T00:11:01;4.80;;;2.07;;
19535;SDS011;9913;51.168;4.124;2022-09-09T00:13:34;4.40;;;2.13;;
19535;SDS011;9913;51.168;4.124;2022-09-09T00:16:10;8.63;;;2.53;;
19535;SDS011;9913;51.168;4.124;2022-09-09T00:18:48;6.33;;;2.37;;
19535;SDS011;9913;51.168;4.124;2022-09-09T00:21:23;9.43;;;2.53;;
19535;SDS011;9913;51.168;4.124;2022-09-09T00:23:59;4.17;;;2.10;;
19535;SDS011;9913;51.168;4.124;2022-09-09T00:26:36;7.27;;;2.30;;
19535;SDS011;9913;51.168;4.124;2022-09-09T00:29:10;5.40;;;2.70;;
19535;SDS011;9913;51.168;4.124;2022-09-09T00:31:47;9.40;;;2.40;;
19535;SDS011;9913;51.168;4.124;2022-09-09T00:34:16;6.03;;;2.70;;
19535;SDS011;9913;51.168;4.124;2022-09-09T00:36:49;5.87;;;2.77;;
19535;SDS011;9913;51.168;4.124;2022-09-09T00:39:29;6.93;;;2.93;;
19535;SDS011;9913;51.168;4.124;2022-09-09T00:42:04;4.60;;;2.10;;
19535;SDS011;9913;51.168;4.124;2022-09-09T00:44:48;5.80;;;2.30;;
19535;SDS011;9913;51.168;4.124;2022-09-09T00:47:26;6.10;;;2.40;;
19535;SDS011;9913;51.168;4.124;2022-09-09T00:50:22;5.20;;;2.23;;
19535;SDS011;9913;51.168;4.124;2022-09-09T00:53:04;4.90;;;2.10;;
19535;SDS011;9913;51.168;4.124;2022-09-09T00:55:41;3.83;;;2.13;;
19535;SDS011;9913;51.168;4.124;2022-09-09T00:58:14;3.63;;;2.17;;
19535;SDS011;9913;51.168;4.124;2022-09-09T01:00:44;5.23;;;2.20;;
19535;SDS011;9913;51.168;4.124;2022-09-09T01:03:21;3.97;;;2.10;;
19535;SDS011;9913;51.168;4.124;2022-09-09T01:05:59;4.03;;;2.50;;
19535;SDS011;9913;51.168;4.124;2022-09-09T01:08:36;4.87;;;2.60;;
19535;SDS011;9913;51.168;4.124;2022-09-09T01:11:16;5.00;;;2.07;;
19535;SDS011;9913;51.168;4.124;2022-09-09T01:13:49;4.40;;;2.47;;
19535;SDS011;9913;51.168;4.124;2022-09-09T01:16:27;5.53;;;2.73;;
19535;SDS011;9913;51.168;4.124;2022-09-09T01:18:59;5.27;;;2.20;;
19535;SDS011;9913;51.168;4.124;2022-09-09T01:21:34;4.30;;;1.80;;
19535;SDS011;9913;51.168;4.124;2022-09-09T01:24:20;7.53;;;2.20;;
19535;SDS011;9913;51.168;4.124;2022-09-09T01:27:15;3.30;;;1.90;;
19535;SDS011;9913;51.168;4.124;2022-09-09T01:29:46;4.63;;;2.23;;
19535;SDS011;9913;51.168;4.124;2022-09-09T01:35:09;6.70;;;1.83;;
19535;SDS011;9913;51.168;4.124;2022-09-09T01:37:41;3.83;;;1.87;;
19535;SDS011;9913;51.168;4.124;2022-09-09T01:40:09;3.97;;;1.70;;
19535;SDS011;9913;51.168;4.124;2022-09-09T01:42:39;4.07;;;1.80;;
19535;SDS011;9913;51.168;4.124;2022-09-09T01:45:10;5.73;;;1.90;;
19535;SDS011;9913;51.168;4.124;2022-09-09T01:47:39;5.13;;;2.00;;
19535;SDS011;9913;51.168;4.124;2022-09-09T01:50:19;2.83;;;1.20;;
19535;SDS011;9913;51.168;4.124;2022-09-09T01:52:50;5.43;;;1.77;;
19535;SDS011;9913;51.168;4.124;2022-09-09T01:55:28;3.23;;;1.30;;
19535;SDS011;9913;51.168;4.124;2022-09-09T01:58:14;3.43;;;1.50;;
19535;SDS011;9913;51.168;4.124;2022-09-09T02:00:53;5.40;;;1.80;;
19535;SDS011;9913;51.168;4.124;2022-09-09T02:03:28;4.10;;;1.77;;
19535;SDS011;9913;51.168;4.124;2022-09-09T02:06:12;5.40;;;1.80;;
19535;SDS011;9913;51.168;4.124;2022-09-09T02:08:50;4.37;;;1.67;;
19535;SDS011;9913;51.168;4.124;2022-09-09T02:11:22;6.00;;;1.70;;
19535;SDS011;9913;51.168;4.124;2022-09-09T02:14:01;3.47;;;1.50;;
19535;SDS011;9913;51.168;4.124;2022-09-09T02:16:37;2.97;;;1.77;;
19535;SDS011;9913;51.168;4.124;2022-09-09T02:19:09;5.20;;;1.60;;
19535;SDS011;9913;51.168;4.124;2022-09-09T02:21:58;3.40;;;1.70;;
19535;SDS011;9913;51.168;4.124;2022-09-09T02:24:28;4.13;;;1.53;;
19535;SDS011;9913;51.168;4.124;2022-09-09T02:27:21;4.03;;;1.67;;
19535;SDS011;9913;51.168;4.124;2022-09-09T02:29:52;5.97;;;1.80;;
19535;SDS011;9913;51.168;4.124;2022-09-09T02:32:43;6.33;;;2.20;;
19535;SDS011;9913;51.168;4.124;2022-09-09T02:35:17;5.33;;;2.00;;
19535;SDS011;9913;51.168;4.124;2022-09-09T02:37:48;6.43;;;2.43;;
19535;SDS011;9913;51.168;4.124;2022-09-09T02:40:19;3.27;;;1.97;;
19535;SDS011;9913;51.168;4.124;2022-09-09T02:42:55;4.07;;;1.80;;
19535;SDS011;9913;51.168;4.124;2022-09-09T02:45:29;5.33;;;2.30;;
19535;SDS011;9913;51.168;4.124;2022-09-09T02:48:05;7.20;;;2.20;;
19535;SDS011;9913;51.168;4.124;2022-09-09T02:50:43;6.97;;;2.60;;
19535;SDS011;9913;51.168;4.124;2022-09-09T02:53:22;8.37;;;2.33;;
19535;SDS011;9913;51.168;4.124;2022-09-09T02:55:56;5.37;;;2.40;;
19535;SDS011;9913;51.168;4.124;2022-09-09T02:58:32;5.87;;;2.10;;
19535;SDS011;9913;51.168;4.124;2022-09-09T03:01:06;4.60;;;1.90;;
19535;SDS011;9913;51.168;4.124;2022-09-09T03:03:35;4.73;;;2.20;;
19535;SDS011;9913;51.168;4.124;2022-09-09T03:06:09;4.40;;;2.47;;
19535;SDS011;9913;51.168;4.124;2022-09-09T03:08:39;5.50;;;2.23;;
19535;SDS011;9913;51.168;4.124;2022-09-09T03:11:16;7.23;;;2.27;;
19535;SDS011;9913;51.168;4.124;2022-09-09T03:13:44;5.93;;;2.53;;
19535;SDS011;9913;51.168;4.124;2022-09-09T03:16:15;5.93;;;2.20;;
19535;SDS011;9913;51.168;4.124;2022-09-09T03:18:47;6.00;;;2.10;;
19535;SDS011;9913;51.168;4.124;2022-09-09T03:21:16;7.40;;;2.10;;
19535;SDS011;9913;51.168;4.124;2022-09-09T03:23:45;9.57;;;2.47;;
19535;SDS011;9913;51.168;4.124;2022-09-09T03:26:14;5.90;;;2.20;;
19535;SDS011;9913;51.168;4.124;2022-09-09T03:28:44;6.67;;;2.23;;
19535;SDS011;9913;51.168;4.124;2022-09-09T03:31:18;6.77;;;2.17;;
19535;SDS011;9913;51.168;4.124;2022-09-09T03:33:47;4.67;;;2.30;;
19535;SDS011;9913;51.168;4.124;2022-09-09T03:36:17;4.90;;;1.93;;
19535;SDS011;9913;51.168;4.124;2022-09-09T03:38:46;6.20;;;2.30;;
19535;SDS011;9913;51.168;4.124;2022-09-09T03:41:14;4.90;;;1.90;;
19535;SDS011;9913;51.168;4.124;2022-09-09T03:43:43;3.80;;;1.77;;
19535;SDS011;9913;51.168;4.124;2022-09-09T03:46:11;8.60;;;2.87;;
19535;SDS011;9913;51.168;4.124;2022-09-09T03:48:41;6.40;;;2.30;;
19535;SDS011;9913;51.168;4.124;2022-09-09T03:51:09;5.10;;;2.37;;
19535;SDS011;9913;51.168;4.124;2022-09-09T03:53:38;9.03;;;2.60;;
19535;SDS011;9913;51.168;4.124;2022-09-09T03:56:07;4.57;;;2.40;;
19535;SDS011;9913;51.168;4.124;2022-09-09T03:58:37;9.00;;;3.30;;
19535;SDS011;9913;51.168;4.124;2022-09-09T04:01:07;9.40;;;2.40;;
19535;SDS011;9913;51.168;4.124;2022-09-09T04:03:38;7.20;;;2.20;;
19535;SDS011;9913;51.168;4.124;2022-09-09T04:06:09;9.13;;;2.37;;
19535;SDS011;9913;51.168;4.124;2022-09-09T04:08:41;8.10;;;2.80;;
19535;SDS011;9913;51.168;4.124;2022-09-09T04:11:13;9.17;;;2.00;;
19535;SDS011;9913;51.168;4.124;2022-09-09T04:13:43;9.17;;;2.33;;
19535;SDS011;9913;51.168;4.124;2022-09-09T04:16:12;8.55;;;2.65;;
19535;SDS011;9913;51.168;4.124;2022-09-09T04:18:42;8.43;;;2.60;;
19535;SDS011;9913;51.168;4.124;2022-09-09T04:21:14;7.57;;;2.30;;
19535;SDS011;9913;51.168;4.124;2022-09-09T04:23:44;7.70;;;2.40;;
19535;SDS011;9913;51.168;4.124;2022-09-09T04:26:13;5.27;;;1.90;;
19535;SDS011;9913;51.168;4.124;2022-09-09T04:28:43;7.60;;;3.03;;
19535;SDS011;9913;51.168;4.124;2022-09-09T04:31:17;7.40;;;2.53;;
19535;SDS011;9913;51.168;4.124;2022-09-09T04:33:52;6.87;;;2.60;;
19535;SDS011;9913;51.168;4.124;2022-09-09T04:36:22;8.03;;;2.40;;
19535;SDS011;9913;51.168;4.124;2022-09-09T04:38:55;9.03;;;2.80;;
19535;SDS011;9913;51.168;4.124;2022-09-09T04:41:24;6.43;;;2.57;;
19535;SDS011;9913;51.168;4.124;2022-09-09T04:43:54;8.57;;;2.63;;
19535;SDS011;9913;51.168;4.124;2022-09-09T04:46:22;7.63;;;2.20;;
19535;SDS011;9913;51.168;4.124;2022-09-09T04:48:51;7.77;;;2.70;;
19535;SDS011;9913;51.168;4.124;2022-09-09T04:51:24;10.83;;;2.73;;
19535;SDS011;9913;51.168;4.124;2022-09-09T04:53:53;7.13;;;2.73;;
19535;SDS011;9913;51.168;4.124;2022-09-09T04:56:22;8.43;;;2.40;;
19535;SDS011;9913;51.168;4.124;2022-09-09T04:58:56;6.73;;;2.60;;
19535;SDS011;9913;51.168;4.124;2022-09-09T05:01:37;5.07;;;2.60;;
19535;SDS011;9913;51.168;4.124;2022-09-09T05:04:06;7.20;;;2.40;;
19535;SDS011;9913;51.168;4.124;2022-09-09T05:06:36;6.50;;;2.40;;
19535;SDS011;9913;51.168;4.124;2022-09-09T05:09:04;6.77;;;2.70;;
19535;SDS011;9913;51.168;4.124;2022-09-09T05:11:33;8.10;;;2.87;;
19535;SDS011;9913;51.168;4.124;2022-09-09T05:14:23;12.03;;;3.13;;
19535;SDS011;9913;51.168;4.124;2022-09-09T05:16:52;8.43;;;2.83;;
19535;SDS011;9913;51.168;4.124;2022-09-09T05:19:21;10.13;;;2.70;;
19535;SDS011;9913;51.168;4.124;2022-09-09T05:21:54;6.53;;;2.97;;
19535;SDS011;9913;51.168;4.124;2022-09-09T05:24:31;7.97;;;2.90;;
19535;SDS011;9913;51.168;4.124;2022-09-09T05:27:01;8.67;;;3.30;;
19535;SDS011;9913;51.168;4.124;2022-09-09T05:29:32;10.83;;;2.77;;
19535;SDS011;9913;51.168;4.124;2022-09-09T05:32:03;7.43;;;2.47;;
19535;SDS011;9913;51.168;4.124;2022-09-09T05:34:33;7.67;;;2.93;;
19535;SDS011;9913;51.168;4.124;2022-09-09T05:37:05;9.27;;;2.87;;
19535;SDS011;9913;51.168;4.124;2022-09-09T05:39:36;7.50;;;2.53;;
19535;SDS011;9913;51.168;4.124;2022-09-09T05:42:05;10.60;;;2.83;;
19535;SDS011;9913;51.168;4.124;2022-09-09T05:44:33;6.13;;;2.67;;
19535;SDS011;9913;51.168;4.124;2022-09-09T05:47:01;6.23;;;2.70;;
19535;SDS011;9913;51.168;4.124;2022-09-09T05:49:30;9.77;;;2.83;;
19535;SDS011;9913;51.168;4.124;2022-09-09T05:51:59;9.43;;;2.40;;
19535;SDS011;9913;51.168;4.124;2022-09-09T05:54:32;9.10;;;2.50;;
19535;SDS011;9913;51.168;4.124;2022-09-09T05:57:01;6.60;;;2.77;;
19535;SDS011;9913;51.168;4.124;2022-09-09T05:59:29;8.47;;;2.23;;
19535;SDS011;9913;51.168;4.124;2022-09-09T06:01:59;10.03;;;2.50;;
19535;SDS011;9913;51.168;4.124;2022-09-09T06:04:33;6.97;;;2.40;;
19535;SDS011;9913;51.168;4.124;2022-09-09T06:07:02;10.90;;;3.07;;
19535;SDS011;9913;51.168;4.124;2022-09-09T06:09:33;6.43;;;2.30;;
19535;SDS011;9913;51.168;4.124;2022-09-09T06:12:01;10.20;;;2.40;;
19535;SDS011;9913;51.168;4.124;2022-09-09T06:14:33;10.00;;;2.50;;
19535;SDS011;9913;51.168;4.124;2022-09-09T06:17:02;8.83;;;2.47;;
19535;SDS011;9913;51.168;4.124;2022-09-09T06:19:30;5.80;;;3.13;;
19535;SDS011;9913;51.168;4.124;2022-09-09T06:21:59;7.47;;;2.73;;
19535;SDS011;9913;51.168;4.124;2022-09-09T06:24:30;11.33;;;2.93;;
19535;SDS011;9913;51.168;4.124;2022-09-09T06:27:02;9.63;;;2.80;;
19535;SDS011;9913;51.168;4.124;2022-09-09T06:29:34;6.10;;;2.27;;
19535;SDS011;9913;51.168;4.124;2022-09-09T06:32:02;6.67;;;2.20;;
19535;SDS011;9913;51.168;4.124;2022-09-09T06:34:31;6.63;;;2.47;;
19535;SDS011;9913;51.168;4.124;2022-09-09T06:36:59;12.10;;;2.57;;
19535;SDS011;9913;51.168;4.124;2022-09-09T06:39:36;3.67;;;2.00;;
19535;SDS011;9913;51.168;4.124;2022-09-09T06:42:07;4.67;;;2.03;;
19535;SDS011;9913;51.168;4.124;2022-09-09T06:44:54;6.55;;;2.15;;
19535;SDS011;9913;51.168;4.124;2022-09-09T06:47:33;9.13;;;2.50;;
19535;SDS011;9913;51.168;4.124;2022-09-09T06:50:03;6.77;;;2.20;;
19535;SDS011;9913;51.168;4.124;2022-09-09T06:52:33;7.53;;;2.33;;
19535;SDS011;9913;51.168;4.124;2022-09-09T06:55:02;5.15;;;2.22;;
19535;SDS011;9913;51.168;4.124;2022-09-09T06:57:34;8.67;;;2.30;;
19535;SDS011;9913;51.168;4.124;2022-09-09T07:00:17;5.60;;;2.40;;
19535;SDS011;9913;51.168;4.124;2022-09-09T07:02:45;6.77;;;2.53;;
19535;SDS011;9913;51.168;4.124;2022-09-09T07:05:14;10.43;;;2.53;;
19535;SDS011;9913;51.168;4.124;2022-09-09T07:07:45;4.07;;;2.17;;
19535;SDS011;9913;51.168;4.124;2022-09-09T07:10:15;9.30;;;2.37;;
19535;SDS011;9913;51.168;4.124;2022-09-09T07:12:46;8.80;;;2.47;;
19535;SDS011;9913;51.168;4.124;2022-09-09T07:15:21;7.93;;;2.33;;
19535;SDS011;9913;51.168;4.124;2022-09-09T07:17:50;8.23;;;2.57;;
19535;SDS011;9913;51.168;4.124;2022-09-09T07:20:18;8.03;;;2.33;;
19535;SDS011;9913;51.168;4.124;2022-09-09T07:22:47;8.70;;;2.73;;
19535;SDS011;9913;51.168;4.124;2022-09-09T07:25:15;8.20;;;2.87;;
19535;SDS011;9913;51.168;4.124;2022-09-09T07:27:46;9.03;;;2.97;;
19535;SDS011;9913;51.168;4.124;2022-09-09T07:30:16;7.03;;;2.83;;
19535;SDS011;9913;51.168;4.124;2022-09-09T07:32:54;8.30;;;2.78;;
19535;SDS011;9913;51.168;4.124;2022-09-09T07:35:24;7.57;;;2.37;;
19535;SDS011;9913;51.168;4.124;2022-09-09T07:37:53;5.50;;;2.17;;
19535;SDS011;9913;51.168;4.124;2022-09-09T07:40:22;9.27;;;2.60;;
19535;SDS011;9913;51.168;4.124;2022-09-09T07:42:53;11.88;;;2.58;;
19535;SDS011;9913;51.168;4.124;2022-09-09T07:45:21;4.63;;;2.63;;
19535;SDS011;9913;51.168;4.124;2022-09-09T07:47:50;7.60;;;2.00;;
19535;SDS011;9913;51.168;4.124;2022-09-09T07:50:19;8.18;;;2.60;;
19535;SDS011;9913;51.168;4.124;2022-09-09T07:52:49;11.38;;;2.50;;
19535;SDS011;9913;51.168;4.124;2022-09-09T07:55:17;7.27;;;2.07;;
19535;SDS011;9913;51.168;4.124;2022-09-09T07:57:46;7.18;;;2.30;;
19535;SDS011;9913;51.168;4.124;2022-09-09T08:00:17;6.97;;;2.40;;
19535;SDS011;9913;51.168;4.124;2022-09-09T08:02:51;6.10;;;2.40;;
19535;SDS011;9913;51.168;4.124;2022-09-09T08:05:21;6.88;;;2.42;;
19535;SDS011;9913;51.168;4.124;2022-09-09T08:07:49;6.25;;;2.40;;
19535;SDS011;9913;51.168;4.124;2022-09-09T08:10:18;8.23;;;2.63;;
19535;SDS011;9913;51.168;4.124;2022-09-09T08:12:48;7.20;;;3.22;;
19535;SDS011;9913;51.168;4.124;2022-09-09T08:15:38;6.15;;;2.47;;
19535;SDS011;9913;51.168;4.124;2022-09-09T08:18:07;6.25;;;2.22;;
19535;SDS011;9913;51.168;4.124;2022-09-09T08:20:36;6.90;;;2.10;;
19535;SDS011;9913;51.168;4.124;2022-09-09T08:23:05;6.43;;;2.63;;
19535;SDS011;9913;51.168;4.124;2022-09-09T08:25:34;7.65;;;2.30;;
19535;SDS011;9913;51.168;4.124;2022-09-09T08:28:02;7.53;;;2.47;;
19535;SDS011;9913;51.168;4.124;2022-09-09T08:30:31;6.40;;;2.35;;
19535;SDS011;9913;51.168;4.124;2022-09-09T08:33:00;5.22;;;1.95;;
19535;SDS011;9913;51.168;4.124;2022-09-09T08:35:29;6.65;;;2.13;;
19535;SDS011;9913;51.168;4.124;2022-09-09T08:38:00;8.93;;;2.25;;
19535;SDS011;9913;51.168;4.124;2022-09-09T08:40:32;6.47;;;2.25;;
19535;SDS011;9913;51.168;4.124;2022-09-09T08:43:08;7.43;;;2.30;;
19535;SDS011;9913;51.168;4.124;2022-09-09T08:45:37;4.38;;;1.73;;
19535;SDS011;9913;51.168;4.124;2022-09-09T08:48:23;5.93;;;1.80;;
19535;SDS011;9913;51.168;4.124;2022-09-09T08:51:08;4.50;;;1.80;;
19535;SDS011;9913;51.168;4.124;2022-09-09T08:53:40;5.95;;;1.90;;
19535;SDS011;9913;51.168;4.124;2022-09-09T08:56:14;5.10;;;1.98;;
19535;SDS011;9913;51.168;4.124;2022-09-09T08:58:49;4.63;;;1.98;;
19535;SDS011;9913;51.168;4.124;2022-09-09T09:01:38;5.88;;;1.77;;
19535;SDS011;9913;51.168;4.124;2022-09-09T09:07:26;5.00;;;1.75;;
19535;SDS011;9913;51.168;4.124;2022-09-09T09:10:08;6.88;;;2.10;;
19535;SDS011;9913;51.168;4.124;2022-09-09T09:13:06;6.28;;;1.70;;
19535;SDS011;9913;51.168;4.124;2022-09-09T09:15:40;4.10;;;1.90;;
19535;SDS011;9913;51.168;4.124;2022-09-09T09:18:12;6.45;;;2.00;;
19535;SDS011;9913;51.168;4.124;2022-09-09T09:20:46;4.57;;;1.90;;
19535;SDS011;9913;51.168;4.124;2022-09-09T09:23:21;4.00;;;1.90;;
19535;SDS011;9913;51.168;4.124;2022-09-09T09:25:55;4.68;;;1.75;;
19535;SDS011;9913;51.168;4.124;2022-09-09T09:28:29;4.00;;;1.80;;
19535;SDS011;9913;51.168;4.124;2022-09-09T09:31:10;5.00;;;1.90;;
19535;SDS011;9913;51.168;4.124;2022-09-09T09:33:46;7.68;;;2.28;;
19535;SDS011;9913;51.168;4.124;2022-09-09T09:36:20;5.32;;;2.10;;
19535;SDS011;9913;51.168;4.124;2022-09-09T09:38:52;7.53;;;2.63;;
19535;SDS011;9913;51.168;4.124;2022-09-09T09:41:43;5.63;;;2.10;;
19535;SDS011;9913;51.168;4.124;2022-09-09T09:44:22;4.70;;;1.55;;
19535;SDS011;9913;51.168;4.124;2022-09-09T09:47:05;5.38;;;2.00;;
19535;SDS011;9913;51.168;4.124;2022-09-09T09:49:36;8.98;;;2.05;;
19535;SDS011;9913;51.168;4.124;2022-09-09T09:52:06;8.05;;;1.75;;
19535;SDS011;9913;51.168;4.124;2022-09-09T09:54:43;4.13;;;1.75;;
19535;SDS011;9913;51.168;4.124;2022-09-09T09:57:12;4.47;;;1.67;;
19535;SDS011;9913;51.168;4.124;2022-09-09T09:59:45;5.63;;;2.10;;
19535;SDS011;9913;51.168;4.124;2022-09-09T10:02:23;4.20;;;1.90;;
19535;SDS011;9913;51.168;4.124;2022-09-09T10:05:01;3.22;;;1.95;;
19535;SDS011;9913;51.168;4.124;2022-09-09T10:07:35;4.90;;;1.73;;
19535;SDS011;9913;51.168;4.124;2022-09-09T10:10:04;5.22;;;1.80;;
19535;SDS011;9913;51.168;4.124;2022-09-09T10:12:37;3.97;;;1.60;;
19535;SDS011;9913;51.168;4.124;2022-09-09T10:15:21;2.78;;;1.52;;
19535;SDS011;9913;51.168;4.124;2022-09-09T10:18:03;3.90;;;1.40;;
19535;SDS011;9913;51.168;4.124;2022-09-09T10:20:45;5.43;;;1.98;;
19535;SDS011;9913;51.168;4.124;2022-09-09T10:23:28;3.17;;;2.05;;
19535;SDS011;9913;51.168;4.124;2022-09-09T10:26:17;4.47;;;1.52;;
19535;SDS011;9913;51.168;4.124;2022-09-09T10:29:03;4.53;;;1.80;;
19535;SDS011;9913;51.168;4.124;2022-09-09T10:32:08;4.32;;;1.92;;
19535;SDS011;9913;51.168;4.124;2022-09-09T10:34:53;4.53;;;1.52;;
19535;SDS011;9913;51.168;4.124;2022-09-09T10:37:37;3.33;;;1.75;;
19535;SDS011;9913;51.168;4.124;2022-09-09T10:40:23;4.63;;;1.70;;
19535;SDS011;9913;51.168;4.124;2022-09-09T10:43:01;4.60;;;1.70;;
19535;SDS011;9913;51.168;4.124;2022-09-09T10:45:39;4.55;;;1.50;;
19535;SDS011;9913;51.168;4.124;2022-09-09T10:48:24;4.00;;;1.50;;
19535;SDS011;9913;51.168;4.124;2022-09-09T10:51:02;2.08;;;1.15;;
19535;SDS011;9913;51.168;4.124;2022-09-09T10:53:46;5.18;;;1.55;;
19535;SDS011;9913;51.168;4.124;2022-09-09T10:56:22;2.83;;;1.70;;
19535;SDS011;9913;51.168;4.124;2022-09-09T10:58:52;5.15;;;1.83;;
19535;SDS011;9913;51.168;4.124;2022-09-09T11:01:26;5.43;;;1.10;;
19535;SDS011;9913;51.168;4.124;2022-09-09T11:04:00;3.33;;;1.10;;
19535;SDS011;9913;51.168;4.124;2022-09-09T11:06:35;2.63;;;1.08;;
19535;SDS011;9913;51.168;4.124;2022-09-09T11:09:10;2.70;;;0.98;;
19535;SDS011;9913;51.168;4.124;2022-09-09T11:11:46;4.43;;;1.60;;
19535;SDS011;9913;51.168;4.124;2022-09-09T11:14:22;2.30;;;1.17;;
19535;SDS011;9913;51.168;4.124;2022-09-09T11:17:04;3.25;;;1.13;;
19535;SDS011;9913;51.168;4.124;2022-09-09T11:19:38;4.38;;;1.30;;
19535;SDS011;9913;51.168;4.124;2022-09-09T11:22:08;4.93;;;1.02;;
19535;SDS011;9913;51.168;4.124;2022-09-09T11:24:47;4.25;;;1.52;;
19535;SDS011;9913;51.168;4.124;2022-09-09T11:27:21;1.92;;;1.20;;
19535;SDS011;9913;51.168;4.124;2022-09-09T11:30:13;3.35;;;1.40;;
19535;SDS011;9913;51.168;4.124;2022-09-09T11:33:11;1.63;;;1.08;;
19535;SDS011;9913;51.168;4.124;2022-09-09T11:35:58;3.35;;;1.15;;
19535;SDS011;9913;51.168;4.124;2022-09-09T11:38:43;2.97;;;1.40;;
19535;SDS011;9913;51.168;4.124;2022-09-09T11:41:13;2.33;;;1.02;;
19535;SDS011;9913;51.168;4.124;2022-09-09T11:43:49;2.08;;;1.08;;
19535;SDS011;9913;51.168;4.124;2022-09-09T11:46:20;3.25;;;0.90;;
19535;SDS011;9913;51.168;4.124;2022-09-09T11:48:57;1.98;;;1.00;;
19535;SDS011;9913;51.168;4.124;2022-09-09T11:51:28;3.92;;;1.30;;
19535;SDS011;9913;51.168;4.124;2022-09-09T11:53:58;3.78;;;1.27;;
19535;SDS011;9913;51.168;4.124;2022-09-09T11:56:29;3.33;;;1.10;;
19535;SDS011;9913;51.168;4.124;2022-09-09T11:59:02;2.45;;;0.88;;
19535;SDS011;9913;51.168;4.124;2022-09-09T12:01:38;2.53;;;1.00;;
19535;SDS011;9913;51.168;4.124;2022-09-09T12:04:26;1.98;;;0.88;;
19535;SDS011;9913;51.168;4.124;2022-09-09T12:06:59;2.60;;;1.00;;
19535;SDS011;9913;51.168;4.124;2022-09-09T12:09:32;1.70;;;0.98;;
19535;SDS011;9913;51.168;4.124;2022-09-09T12:12:23;3.20;;;0.85;;
19535;SDS011;9913;51.168;4.124;2022-09-09T12:14:57;3.83;;;1.27;;
19535;SDS011;9913;51.168;4.124;2022-09-09T12:17:29;2.85;;;0.90;;
19535;SDS011;9913;51.168;4.124;2022-09-09T12:20:03;1.55;;;0.80;;
19535;SDS011;9913;51.168;4.124;2022-09-09T12:22:39;2.10;;;1.10;;
19535;SDS011;9913;51.168;4.124;2022-09-09T12:25:18;3.15;;;1.20;;
19535;SDS011;9913;51.168;4.124;2022-09-09T12:27:58;2.97;;;1.05;;
19535;SDS011;9913;51.168;4.124;2022-09-09T12:30:37;5.18;;;1.10;;
19535;SDS011;9913;51.168;4.124;2022-09-09T12:33:16;4.75;;;1.13;;
19535;SDS011;9913;51.168;4.124;2022-09-09T12:35:47;2.20;;;1.00;;
19535;SDS011;9913;51.168;4.124;2022-09-09T12:38:22;2.05;;;1.10;;
19535;SDS011;9913;51.168;4.124;2022-09-09T12:40:59;2.45;;;0.90;;
19535;SDS011;9913;51.168;4.124;2022-09-09T12:43:28;3.38;;;1.10;;
19535;SDS011;9913;51.168;4.124;2022-09-09T12:45:59;2.63;;;0.93;;
19535;SDS011;9913;51.168;4.124;2022-09-09T12:48:32;2.85;;;0.80;;
19535;SDS011;9913;51.168;4.124;2022-09-09T12:51:05;3.08;;;1.23;;
19535;SDS011;9913;51.168;4.124;2022-09-09T12:53:51;1.67;;;0.90;;
19535;SDS011;9913;51.168;4.124;2022-09-09T12:56:21;3.95;;;1.35;;
19535;SDS011;9913;51.168;4.124;2022-09-09T12:58:53;2.28;;;1.33;;
19535;SDS011;9913;51.168;4.124;2022-09-09T13:01:26;2.70;;;1.20;;
19535;SDS011;9913;51.168;4.124;2022-09-09T13:03:56;5.13;;;1.23;;
19535;SDS011;9913;51.168;4.124;2022-09-09T13:06:25;2.00;;;1.13;;
19535;SDS011;9913;51.168;4.124;2022-09-09T13:08:55;2.72;;;1.00;;
19535;SDS011;9913;51.168;4.124;2022-09-09T13:11:26;2.55;;;0.90;;
19535;SDS011;9913;51.168;4.124;2022-09-09T13:13:58;1.83;;;1.00;;
19535;SDS011;9913;51.168;4.124;2022-09-09T13:16:29;2.65;;;0.98;;
19535;SDS011;9913;51.168;4.124;2022-09-09T13:19:06;2.20;;;0.93;;
19535;SDS011;9913;51.168;4.124;2022-09-09T13:21:37;3.75;;;1.25;;
19535;SDS011;9913;51.168;4.124;2022-09-09T13:24:19;2.08;;;1.02;;
19535;SDS011;9913;51.168;4.124;2022-09-09T13:26:55;2.05;;;0.93;;
19535;SDS011;9913;51.168;4.124;2022-09-09T13:29:24;2.13;;;0.98;;
19535;SDS011;9913;51.168;4.124;2022-09-09T13:31:54;3.35;;;1.10;;
19535;SDS011;9913;51.168;4.124;2022-09-09T13:34:33;1.67;;;0.80;;
19535;SDS011;9913;51.168;4.124;2022-09-09T13:37:03;1.88;;;0.95;;
19535;SDS011;9913;51.168;4.124;2022-09-09T13:39:34;1.77;;;0.80;;
19535;SDS011;9913;51.168;4.124;2022-09-09T13:42:04;2.47;;;0.90;;
19535;SDS011;9913;51.168;4.124;2022-09-09T13:44:34;4.47;;;0.90;;
19535;SDS011;9913;51.168;4.124;2022-09-09T13:47:17;1.85;;;1.00;;
19535;SDS011;9913;51.168;4.124;2022-09-09T13:49:47;2.22;;;0.80;;
19535;SDS011;9913;51.168;4.124;2022-09-09T13:52:16;1.63;;;0.95;;
19535;SDS011;9913;51.168;4.124;2022-09-09T13:54:47;3.90;;;1.08;;
19535;SDS011;9913;51.168;4.124;2022-09-09T13:57:17;2.20;;;1.00;;
19535;SDS011;9913;51.168;4.124;2022-09-09T13:59:47;2.05;;;1.08;;
19535;SDS011;9913;51.168;4.124;2022-09-09T14:02:33;6.22;;;1.20;;
19535;SDS011;9913;51.168;4.124;2022-09-09T14:05:02;2.38;;;0.90;;
19535;SDS011;9913;51.168;4.124;2022-09-09T14:07:31;2.08;;;1.08;;
19535;SDS011;9913;51.168;4.124;2022-09-09T14:09:59;1.92;;;0.80;;
19535;SDS011;9913;51.168;4.124;2022-09-09T14:12:28;2.15;;;0.95;;
19535;SDS011;9913;51.168;4.124;2022-09-09T14:14:56;1.60;;;0.70;;
19535;SDS011;9913;51.168;4.124;2022-09-09T14:17:26;3.08;;;1.30;;
19535;SDS011;9913;51.168;4.124;2022-09-09T14:19:59;2.95;;;1.00;;
19535;SDS011;9913;51.168;4.124;2022-09-09T14:22:27;1.83;;;0.82;;
19535;SDS011;9913;51.168;4.124;2022-09-09T14:24:56;2.88;;;1.08;;
19535;SDS011;9913;51.168;4.124;2022-09-09T14:27:24;2.83;;;0.90;;
19535;SDS011;9913;51.168;4.124;2022-09-09T14:29:53;2.75;;;0.98;;
19535;SDS011;9913;51.168;4.124;2022-09-09T14:32:22;3.55;;;0.93;;
19535;SDS011;9913;51.168;4.124;2022-09-09T14:34:50;1.05;;;0.73;;
19535;SDS011;9913;51.168;4.124;2022-09-09T14:37:20;3.30;;;1.40;;
19535;SDS011;9913;51.168;4.124;2022-09-09T14:39:48;3.58;;;0.90;;
19535;SDS011;9913;51.168;4.124;2022-09-09T14:42:18;2.58;;;0.98;;
19535;SDS011;9913;51.168;4.124;2022-09-09T14:44:46;2.97;;;1.17;;
19535;SDS011;9913;51.168;4.124;2022-09-09T14:47:15;2.80;;;0.90;;
19535;SDS011;9913;51.168;4.124;2022-09-09T14:49:43;1.88;;;1.02;;
19535;SDS011;9913;51.168;4.124;2022-09-09T14:52:12;2.75;;;1.13;;
19535;SDS011;9913;51.168;4.124;2022-09-09T14:54:42;3.28;;;1.40;;
19535;SDS011;9913;51.168;4.124;2022-09-09T14:57:10;1.48;;;1.10;;
19535;SDS011;9913;51.168;4.124;2022-09-09T14:59:39;3.05;;;1.20;;
19535;SDS011;9913;51.168;4.124;2022-09-09T15:02:07;2.25;;;1.10;;
19535;SDS011;9913;51.168;4.124;2022-09-09T15:04:36;1.63;;;1.00;;
19535;SDS011;9913;51.168;4.124;2022-09-09T15:07:05;2.40;;;1.00;;
19535;SDS011;9913;51.168;4.124;2022-09-09T15:09:33;2.28;;;0.98;;
19535;SDS011;9913;51.168;4.124;2022-09-09T15:12:05;1.63;;;1.00;;
19535;SDS011;9913;51.168;4.124;2022-09-09T15:14:33;1.48;;;1.00;;
19535;SDS011;9913;51.168;4.124;2022-09-09T15:17:02;2.80;;;1.30;;
19535;SDS011;9913;51.168;4.124;2022-09-09T15:19:30;2.47;;;1.00;;
19535;SDS011;9913;51.168;4.124;2022-09-09T15:21:58;1.48;;;1.20;;
19535;SDS011;9913;51.168;4.124;2022-09-09T15:24:27;3.08;;;1.25;;
19535;SDS011;9913;51.168;4.124;2022-09-09T15:26:55;2.97;;;1.20;;
19535;SDS011;9913;51.168;4.124;2022-09-09T15:29:25;2.50;;;1.50;;
19535;SDS011;9913;51.168;4.124;2022-09-09T15:31:54;2.95;;;1.40;;
19535;SDS011;9913;51.168;4.124;2022-09-09T15:34:22;3.30;;;1.30;;
19535;SDS011;9913;51.168;4.124;2022-09-09T15:36:52;2.40;;;1.40;;
19535;SDS011;9913;51.168;4.124;2022-09-09T15:39:21;3.63;;;1.90;;
19535;SDS011;9913;51.168;4.124;2022-09-09T15:41:50;5.78;;;2.08;;
19535;SDS011;9913;51.168;4.124;2022-09-09T15:44:18;3.28;;;1.85;;